sensor_id;sensor_type;location;lat;lon;timestamp;P1;durP1;ratioP1;P2;durP2;ratioP2
64520;SDS011;50896;46.714;17.322;2023-12-22T00:02:20;10.60;;;6.65;;
64520;SDS011;50896;46.714;17.322;2023-12-22T00:04:47;10.13;;;7.03;;
64520;SDS011;50896;46.714;17.322;2023-12-22T00:07:14;11.25;;;6.20;;
64520;SDS011;50896;46.714;17.322;2023-12-22T00:09:41;10.57;;;6.50;;
64520;SDS011;50896;46.714;17.322;2023-12-22T00:12:08;10.88;;;6.68;;
64520;SDS011;50896;46.714;17.322;2023-12-22T00:14:35;11.93;;;7.18;;
64520;SDS011;50896;46.714;17.322;2023-12-22T00:17:03;11.40;;;6.40;;
64520;SDS011;50896;46.714;17.322;2023-12-22T00:19:30;10.43;;;6.85;;
64520;SDS011;50896;46.714;17.322;2023-12-22T00:21:58;11.23;;;7.35;;
64520;SDS011;50896;46.714;17.322;2023-12-22T00:24:24;10.43;;;6.57;;
64520;SDS011;50896;46.714;17.322;2023-12-22T00:26:51;11.20;;;6.25;;
64520;SDS011;50896;46.714;17.322;2023-12-22T00:29:18;9.68;;;6.53;;
64520;SDS011;50896;46.714;17.322;2023-12-22T00:31:46;10.20;;;6.55;;
64520;SDS011;50896;46.714;17.322;2023-12-22T00:34:14;10.00;;;6.32;;
64520;SDS011;50896;46.714;17.322;2023-12-22T00:36:40;8.88;;;5.97;;
64520;SDS011;50896;46.714;17.322;2023-12-22T00:39:07;8.32;;;5.60;;
64520;SDS011;50896;46.714;17.322;2023-12-22T00:41:35;8.20;;;5.72;;
64520;SDS011;50896;46.714;17.322;2023-12-22T00:44:01;8.18;;;5.50;;
64520;SDS011;50896;46.714;17.322;2023-12-22T00:46:28;8.25;;;5.32;;
64520;SDS011;50896;46.714;17.322;2023-12-22T00:48:57;9.80;;;6.22;;
64520;SDS011;50896;46.714;17.322;2023-12-22T00:51:24;11.07;;;6.63;;
64520;SDS011;50896;46.714;17.322;2023-12-22T00:53:51;11.20;;;6.22;;
64520;SDS011;50896;46.714;17.322;2023-12-22T00:56:17;9.70;;;6.47;;
64520;SDS011;50896;46.714;17.322;2023-12-22T00:58:44;8.35;;;6.00;;
64520;SDS011;50896;46.714;17.322;2023-12-22T01:01:22;10.85;;;6.65;;
64520;SDS011;50896;46.714;17.322;2023-12-22T01:03:49;10.77;;;6.28;;
64520;SDS011;50896;46.714;17.322;2023-12-22T01:06:16;11.75;;;6.25;;
64520;SDS011;50896;46.714;17.322;2023-12-22T01:08:43;10.02;;;6.30;;
64520;SDS011;50896;46.714;17.322;2023-12-22T01:11:10;9.98;;;5.68;;
64520;SDS011;50896;46.714;17.322;2023-12-22T01:13:37;10.93;;;5.95;;
64520;SDS011;50896;46.714;17.322;2023-12-22T01:16:05;8.43;;;5.65;;
64520;SDS011;50896;46.714;17.322;2023-12-22T01:18:31;8.18;;;5.70;;
64520;SDS011;50896;46.714;17.322;2023-12-22T01:20:58;8.15;;;5.18;;
64520;SDS011;50896;46.714;17.322;2023-12-22T01:23:25;10.77;;;5.78;;
64520;SDS011;50896;46.714;17.322;2023-12-22T01:25:52;6.55;;;4.72;;
64520;SDS011;50896;46.714;17.322;2023-12-22T01:28:19;8.57;;;5.13;;
64520;SDS011;50896;46.714;17.322;2023-12-22T01:30:46;8.77;;;5.13;;
64520;SDS011;50896;46.714;17.322;2023-12-22T01:33:13;7.05;;;4.22;;
64520;SDS011;50896;46.714;17.322;2023-12-22T01:35:40;8.40;;;4.68;;
64520;SDS011;50896;46.714;17.322;2023-12-22T01:38:07;8.13;;;4.13;;
64520;SDS011;50896;46.714;17.322;2023-12-22T01:40:34;5.03;;;3.55;;
64520;SDS011;50896;46.714;17.322;2023-12-22T01:43:02;6.00;;;3.65;;
64520;SDS011;50896;46.714;17.322;2023-12-22T01:45:29;8.13;;;4.30;;
64520;SDS011;50896;46.714;17.322;2023-12-22T01:47:56;7.47;;;4.15;;
64520;SDS011;50896;46.714;17.322;2023-12-22T01:50:24;7.82;;;4.43;;
64520;SDS011;50896;46.714;17.322;2023-12-22T01:52:51;6.88;;;4.55;;
64520;SDS011;50896;46.714;17.322;2023-12-22T01:55:19;5.97;;;4.00;;
64520;SDS011;50896;46.714;17.322;2023-12-22T01:57:46;8.77;;;3.70;;
64520;SDS011;50896;46.714;17.322;2023-12-22T02:00:14;8.88;;;3.85;;
64520;SDS011;50896;46.714;17.322;2023-12-22T02:02:41;5.75;;;3.78;;
64520;SDS011;50896;46.714;17.322;2023-12-22T02:07:40;5.25;;;2.83;;
64520;SDS011;50896;46.714;17.322;2023-12-22T02:10:08;4.20;;;2.75;;
64520;SDS011;50896;46.714;17.322;2023-12-22T02:12:36;3.53;;;2.00;;
64520;SDS011;50896;46.714;17.322;2023-12-22T02:15:04;2.88;;;1.55;;
64520;SDS011;50896;46.714;17.322;2023-12-22T02:20:05;2.08;;;1.13;;
64520;SDS011;50896;46.714;17.322;2023-12-22T02:22:34;1.23;;;0.60;;
64520;SDS011;50896;46.714;17.322;2023-12-22T02:25:00;2.47;;;0.90;;
64520;SDS011;50896;46.714;17.322;2023-12-22T02:32:41;3.10;;;0.80;;
64520;SDS011;50896;46.714;17.322;2023-12-22T02:35:10;1.20;;;0.55;;
64520;SDS011;50896;46.714;17.322;2023-12-22T02:37:41;1.90;;;0.70;;
64520;SDS011;50896;46.714;17.322;2023-12-22T02:40:09;1.13;;;0.52;;
64520;SDS011;50896;46.714;17.322;2023-12-22T02:42:37;0.68;;;0.30;;
64520;SDS011;50896;46.714;17.322;2023-12-22T02:45:05;1.08;;;0.30;;
64520;SDS011;50896;46.714;17.322;2023-12-22T02:47:33;0.68;;;0.30;;
64520;SDS011;50896;46.714;17.322;2023-12-22T02:49:59;0.20;;;0.20;;
64520;SDS011;50896;46.714;17.322;2023-12-22T02:52:26;0.40;;;0.20;;
64520;SDS011;50896;46.714;17.322;2023-12-22T02:54:53;0.70;;;0.20;;
64520;SDS011;50896;46.714;17.322;2023-12-22T02:57:20;0.25;;;0.20;;
64520;SDS011;50896;46.714;17.322;2023-12-22T02:59:48;0.20;;;0.20;;
64520;SDS011;50896;46.714;17.322;2023-12-22T03:02:14;1.13;;;0.30;;
64520;SDS011;50896;46.714;17.322;2023-12-22T03:04:41;1.10;;;0.47;;
64520;SDS011;50896;46.714;17.322;2023-12-22T03:07:08;2.20;;;0.38;;
64520;SDS011;50896;46.714;17.322;2023-12-22T03:09:35;0.38;;;0.20;;
64520;SDS011;50896;46.714;17.322;2023-12-22T03:12:05;0.60;;;0.30;;
64520;SDS011;50896;46.714;17.322;2023-12-22T03:14:33;1.08;;;0.30;;
64520;SDS011;50896;46.714;17.322;2023-12-22T03:17:00;0.63;;;0.50;;
64520;SDS011;50896;46.714;17.322;2023-12-22T03:19:31;0.50;;;0.40;;
64520;SDS011;50896;46.714;17.322;2023-12-22T03:21:59;3.97;;;2.42;;
64520;SDS011;50896;46.714;17.322;2023-12-22T03:24:26;3.47;;;2.13;;
64520;SDS011;50896;46.714;17.322;2023-12-22T03:26:55;4.07;;;2.65;;
64520;SDS011;50896;46.714;17.322;2023-12-22T03:29:22;3.60;;;2.30;;
64520;SDS011;50896;46.714;17.322;2023-12-22T03:31:49;10.10;;;4.18;;
64520;SDS011;50896;46.714;17.322;2023-12-22T03:34:16;3.55;;;1.92;;
64520;SDS011;50896;46.714;17.322;2023-12-22T03:36:43;5.63;;;2.97;;
64520;SDS011;50896;46.714;17.322;2023-12-22T03:39:15;6.65;;;2.92;;
64520;SDS011;50896;46.714;17.322;2023-12-22T03:41:43;7.60;;;3.53;;
64520;SDS011;50896;46.714;17.322;2023-12-22T03:44:10;7.72;;;3.63;;
64520;SDS011;50896;46.714;17.322;2023-12-22T03:46:37;5.35;;;2.85;;
64520;SDS011;50896;46.714;17.322;2023-12-22T03:49:03;4.15;;;2.58;;
64520;SDS011;50896;46.714;17.322;2023-12-22T03:51:31;3.85;;;2.33;;
64520;SDS011;50896;46.714;17.322;2023-12-22T03:53:57;2.25;;;1.17;;
64520;SDS011;50896;46.714;17.322;2023-12-22T03:56:24;2.78;;;1.40;;
64520;SDS011;50896;46.714;17.322;2023-12-22T03:58:51;1.63;;;1.00;;
64520;SDS011;50896;46.714;17.322;2023-12-22T04:01:18;2.05;;;0.90;;
64520;SDS011;50896;46.714;17.322;2023-12-22T04:03:45;2.53;;;1.10;;
64520;SDS011;50896;46.714;17.322;2023-12-22T04:06:12;1.77;;;0.90;;
64520;SDS011;50896;46.714;17.322;2023-12-22T04:08:39;2.38;;;1.38;;
64520;SDS011;50896;46.714;17.322;2023-12-22T04:11:06;3.47;;;1.80;;
64520;SDS011;50896;46.714;17.322;2023-12-22T04:13:33;3.05;;;1.30;;
64520;SDS011;50896;46.714;17.322;2023-12-22T04:16:00;2.65;;;1.10;;
64520;SDS011;50896;46.714;17.322;2023-12-22T04:18:28;1.60;;;0.73;;
64520;SDS011;50896;46.714;17.322;2023-12-22T04:20:55;4.65;;;0.80;;
64520;SDS011;50896;46.714;17.322;2023-12-22T04:23:22;2.63;;;0.70;;
64520;SDS011;50896;46.714;17.322;2023-12-22T04:25:49;2.72;;;1.27;;
64520;SDS011;50896;46.714;17.322;2023-12-22T04:28:16;4.95;;;1.90;;
64520;SDS011;50896;46.714;17.322;2023-12-22T04:30:43;2.33;;;1.02;;
64520;SDS011;50896;46.714;17.322;2023-12-22T04:33:10;1.38;;;0.70;;
64520;SDS011;50896;46.714;17.322;2023-12-22T04:35:37;1.20;;;0.80;;
64520;SDS011;50896;46.714;17.322;2023-12-22T04:38:04;0.75;;;0.40;;
64520;SDS011;50896;46.714;17.322;2023-12-22T04:40:31;1.10;;;0.50;;
64520;SDS011;50896;46.714;17.322;2023-12-22T04:42:58;1.77;;;0.70;;
64520;SDS011;50896;46.714;17.322;2023-12-22T04:45:25;0.35;;;0.35;;
64520;SDS011;50896;46.714;17.322;2023-12-22T04:47:52;1.80;;;0.60;;
64520;SDS011;50896;46.714;17.322;2023-12-22T04:50:19;0.85;;;0.30;;
64520;SDS011;50896;46.714;17.322;2023-12-22T04:52:46;0.95;;;0.45;;
64520;SDS011;50896;46.714;17.322;2023-12-22T04:55:13;1.52;;;0.30;;
64520;SDS011;50896;46.714;17.322;2023-12-22T04:57:40;0.52;;;0.43;;
64520;SDS011;50896;46.714;17.322;2023-12-22T05:00:07;0.63;;;0.52;;
64520;SDS011;50896;46.714;17.322;2023-12-22T05:02:34;0.70;;;0.50;;
64520;SDS011;50896;46.714;17.322;2023-12-22T05:05:01;0.60;;;0.50;;
64520;SDS011;50896;46.714;17.322;2023-12-22T05:07:29;0.88;;;0.60;;
64520;SDS011;50896;46.714;17.322;2023-12-22T05:09:56;0.60;;;0.40;;
64520;SDS011;50896;46.714;17.322;2023-12-22T05:12:23;1.13;;;0.40;;
64520;SDS011;50896;46.714;17.322;2023-12-22T05:14:50;0.52;;;0.32;;
64520;SDS011;50896;46.714;17.322;2023-12-22T05:17:17;1.02;;;0.40;;
64520;SDS011;50896;46.714;17.322;2023-12-22T05:19:44;0.47;;;0.35;;
64520;SDS011;50896;46.714;17.322;2023-12-22T05:22:11;0.47;;;0.30;;
64520;SDS011;50896;46.714;17.322;2023-12-22T05:24:38;0.40;;;0.20;;
64520;SDS011;50896;46.714;17.322;2023-12-22T05:27:05;0.85;;;0.20;;
64520;SDS011;50896;46.714;17.322;2023-12-22T05:29:32;0.95;;;0.47;;
64520;SDS011;50896;46.714;17.322;2023-12-22T05:31:59;0.98;;;0.30;;
64520;SDS011;50896;46.714;17.322;2023-12-22T05:34:26;1.05;;;0.22;;
64520;SDS011;50896;46.714;17.322;2023-12-22T05:36:53;0.25;;;0.25;;
64520;SDS011;50896;46.714;17.322;2023-12-22T05:39:20;0.30;;;0.30;;
64520;SDS011;50896;46.714;17.322;2023-12-22T05:41:47;0.52;;;0.30;;
64520;SDS011;50896;46.714;17.322;2023-12-22T05:44:14;0.20;;;0.20;;
64520;SDS011;50896;46.714;17.322;2023-12-22T05:46:41;1.15;;;0.20;;
64520;SDS011;50896;46.714;17.322;2023-12-22T05:49:08;0.30;;;0.20;;
64520;SDS011;50896;46.714;17.322;2023-12-22T05:51:41;0.47;;;0.20;;
64520;SDS011;50896;46.714;17.322;2023-12-22T05:54:08;0.40;;;0.20;;
64520;SDS011;50896;46.714;17.322;2023-12-22T05:56:36;0.50;;;0.20;;
64520;SDS011;50896;46.714;17.322;2023-12-22T05:59:03;0.20;;;0.20;;
64520;SDS011;50896;46.714;17.322;2023-12-22T06:01:30;0.77;;;0.28;;
64520;SDS011;50896;46.714;17.322;2023-12-22T06:03:57;0.40;;;0.20;;
64520;SDS011;50896;46.714;17.322;2023-12-22T06:06:24;0.43;;;0.20;;
64520;SDS011;50896;46.714;17.322;2023-12-22T06:08:51;0.70;;;0.30;;
64520;SDS011;50896;46.714;17.322;2023-12-22T06:11:18;0.20;;;0.20;;
64520;SDS011;50896;46.714;17.322;2023-12-22T06:13:46;1.85;;;0.40;;
64520;SDS011;50896;46.714;17.322;2023-12-22T06:16:13;0.17;;;0.10;;
64520;SDS011;50896;46.714;17.322;2023-12-22T06:18:41;0.10;;;0.10;;
64520;SDS011;50896;46.714;17.322;2023-12-22T06:21:09;0.60;;;0.30;;
64520;SDS011;50896;46.714;17.322;2023-12-22T06:23:36;1.35;;;0.20;;
64520;SDS011;50896;46.714;17.322;2023-12-22T06:26:10;0.20;;;0.10;;
64520;SDS011;50896;46.714;17.322;2023-12-22T06:28:38;1.15;;;0.10;;
64520;SDS011;50896;46.714;17.322;2023-12-22T06:31:07;0.10;;;0.10;;
64520;SDS011;50896;46.714;17.322;2023-12-22T06:33:45;0.43;;;0.40;;
64520;SDS011;50896;46.714;17.322;2023-12-22T06:36:22;0.52;;;0.20;;
64520;SDS011;50896;46.714;17.322;2023-12-22T06:38:51;0.20;;;0.15;;
64520;SDS011;50896;46.714;17.322;2023-12-22T06:41:25;0.35;;;0.22;;
64520;SDS011;50896;46.714;17.322;2023-12-22T06:43:54;0.40;;;0.13;;
64520;SDS011;50896;46.714;17.322;2023-12-22T06:46:23;0.93;;;0.25;;
64520;SDS011;50896;46.714;17.322;2023-12-22T06:48:54;2.28;;;0.40;;
64520;SDS011;50896;46.714;17.322;2023-12-22T06:51:22;0.60;;;0.20;;
64520;SDS011;50896;46.714;17.322;2023-12-22T06:53:53;0.85;;;0.30;;
64520;SDS011;50896;46.714;17.322;2023-12-22T06:56:25;0.30;;;0.30;;
64520;SDS011;50896;46.714;17.322;2023-12-22T06:58:55;0.82;;;0.30;;
64520;SDS011;50896;46.714;17.322;2023-12-22T07:01:27;1.30;;;0.40;;
64520;SDS011;50896;46.714;17.322;2023-12-22T07:03:58;0.45;;;0.30;;
64520;SDS011;50896;46.714;17.322;2023-12-22T07:06:30;0.80;;;0.40;;
64520;SDS011;50896;46.714;17.322;2023-12-22T07:11:41;0.35;;;0.30;;
64520;SDS011;50896;46.714;17.322;2023-12-22T07:14:09;0.32;;;0.30;;
64520;SDS011;50896;46.714;17.322;2023-12-22T07:16:38;0.30;;;0.20;;
64520;SDS011;50896;46.714;17.322;2023-12-22T07:19:05;0.32;;;0.28;;
64520;SDS011;50896;46.714;17.322;2023-12-22T07:21:32;0.82;;;0.45;;
64520;SDS011;50896;46.714;17.322;2023-12-22T07:23:59;0.38;;;0.30;;
64520;SDS011;50896;46.714;17.322;2023-12-22T07:26:27;0.90;;;0.40;;
64520;SDS011;50896;46.714;17.322;2023-12-22T07:28:54;0.38;;;0.20;;
64520;SDS011;50896;46.714;17.322;2023-12-22T07:31:22;2.15;;;0.40;;
64520;SDS011;50896;46.714;17.322;2023-12-22T07:33:49;0.82;;;0.30;;
64520;SDS011;50896;46.714;17.322;2023-12-22T07:36:16;0.50;;;0.40;;
64520;SDS011;50896;46.714;17.322;2023-12-22T07:38:46;0.60;;;0.30;;
64520;SDS011;50896;46.714;17.322;2023-12-22T07:41:12;0.77;;;0.40;;
64520;SDS011;50896;46.714;17.322;2023-12-22T07:43:39;1.92;;;0.30;;
64520;SDS011;50896;46.714;17.322;2023-12-22T07:46:08;0.50;;;0.40;;
64520;SDS011;50896;46.714;17.322;2023-12-22T07:48:43;0.65;;;0.30;;
64520;SDS011;50896;46.714;17.322;2023-12-22T07:51:12;0.57;;;0.40;;
64520;SDS011;50896;46.714;17.322;2023-12-22T07:53:39;0.50;;;0.40;;
64520;SDS011;50896;46.714;17.322;2023-12-22T07:56:06;1.85;;;0.30;;
64520;SDS011;50896;46.714;17.322;2023-12-22T07:58:34;0.80;;;0.30;;
64520;SDS011;50896;46.714;17.322;2023-12-22T08:01:01;0.75;;;0.43;;
64520;SDS011;50896;46.714;17.322;2023-12-22T08:03:29;1.20;;;0.40;;
64520;SDS011;50896;46.714;17.322;2023-12-22T08:05:56;0.90;;;0.40;;
64520;SDS011;50896;46.714;17.322;2023-12-22T08:08:23;0.75;;;0.50;;
64520;SDS011;50896;46.714;17.322;2023-12-22T08:10:50;0.93;;;0.85;;
64520;SDS011;50896;46.714;17.322;2023-12-22T08:13:16;1.73;;;1.25;;
64520;SDS011;50896;46.714;17.322;2023-12-22T08:15:44;2.75;;;1.35;;
64520;SDS011;50896;46.714;17.322;2023-12-22T08:18:11;2.65;;;1.73;;
64520;SDS011;50896;46.714;17.322;2023-12-22T08:20:39;1.95;;;1.42;;
64520;SDS011;50896;46.714;17.322;2023-12-22T08:23:10;2.28;;;1.95;;
64520;SDS011;50896;46.714;17.322;2023-12-22T08:25:39;2.17;;;1.58;;
64520;SDS011;50896;46.714;17.322;2023-12-22T08:28:10;2.45;;;1.52;;
64520;SDS011;50896;46.714;17.322;2023-12-22T08:30:40;2.40;;;1.47;;
64520;SDS011;50896;46.714;17.322;2023-12-22T08:33:06;1.95;;;1.10;;
64520;SDS011;50896;46.714;17.322;2023-12-22T08:35:34;7.15;;;3.60;;
64520;SDS011;50896;46.714;17.322;2023-12-22T08:38:01;6.57;;;3.20;;
64520;SDS011;50896;46.714;17.322;2023-12-22T08:40:29;2.22;;;1.75;;
64520;SDS011;50896;46.714;17.322;2023-12-22T08:42:57;3.33;;;1.20;;
64520;SDS011;50896;46.714;17.322;2023-12-22T08:45:28;2.28;;;1.77;;
64520;SDS011;50896;46.714;17.322;2023-12-22T08:47:56;1.80;;;0.90;;
64520;SDS011;50896;46.714;17.322;2023-12-22T08:50:24;0.98;;;0.57;;
64520;SDS011;50896;46.714;17.322;2023-12-22T08:52:51;4.80;;;0.50;;
64520;SDS011;50896;46.714;17.322;2023-12-22T08:55:18;0.57;;;0.30;;
64520;SDS011;50896;46.714;17.322;2023-12-22T08:57:45;0.70;;;0.50;;
64520;SDS011;50896;46.714;17.322;2023-12-22T09:00:24;1.87;;;0.70;;
64520;SDS011;50896;46.714;17.322;2023-12-22T09:02:51;3.13;;;2.03;;
64520;SDS011;50896;46.714;17.322;2023-12-22T09:05:19;3.90;;;2.20;;
64520;SDS011;50896;46.714;17.322;2023-12-22T09:07:47;4.90;;;2.40;;
64520;SDS011;50896;46.714;17.322;2023-12-22T09:10:15;4.18;;;2.15;;
64520;SDS011;50896;46.714;17.322;2023-12-22T09:12:42;3.15;;;2.20;;
64520;SDS011;50896;46.714;17.322;2023-12-22T09:15:09;2.05;;;1.38;;
64520;SDS011;50896;46.714;17.322;2023-12-22T09:17:36;2.15;;;1.20;;
64520;SDS011;50896;46.714;17.322;2023-12-22T09:20:03;2.88;;;1.20;;
64520;SDS011;50896;46.714;17.322;2023-12-22T09:22:30;3.67;;;1.00;;
64520;SDS011;50896;46.714;17.322;2023-12-22T09:24:57;1.15;;;0.90;;
64520;SDS011;50896;46.714;17.322;2023-12-22T09:27:24;1.58;;;0.85;;
64520;SDS011;50896;46.714;17.322;2023-12-22T09:29:55;1.27;;;0.90;;
64520;SDS011;50896;46.714;17.322;2023-12-22T09:32:22;1.60;;;1.00;;
64520;SDS011;50896;46.714;17.322;2023-12-22T09:34:49;1.38;;;1.00;;
64520;SDS011;50896;46.714;17.322;2023-12-22T09:37:16;1.20;;;0.80;;
64520;SDS011;50896;46.714;17.322;2023-12-22T09:39:43;1.77;;;0.80;;
64520;SDS011;50896;46.714;17.322;2023-12-22T09:42:10;1.08;;;0.57;;
64520;SDS011;50896;46.714;17.322;2023-12-22T09:44:36;0.98;;;0.80;;
64520;SDS011;50896;46.714;17.322;2023-12-22T09:47:05;2.68;;;0.50;;
64520;SDS011;50896;46.714;17.322;2023-12-22T09:49:34;2.05;;;0.40;;
64520;SDS011;50896;46.714;17.322;2023-12-22T09:52:01;0.43;;;0.43;;
64520;SDS011;50896;46.714;17.322;2023-12-22T09:54:32;0.52;;;0.50;;
64520;SDS011;50896;46.714;17.322;2023-12-22T09:57:00;0.80;;;0.57;;
64520;SDS011;50896;46.714;17.322;2023-12-22T09:59:45;0.52;;;0.30;;
64520;SDS011;50896;46.714;17.322;2023-12-22T10:02:15;0.60;;;0.40;;
64520;SDS011;50896;46.714;17.322;2023-12-22T10:04:42;0.40;;;0.40;;
64520;SDS011;50896;46.714;17.322;2023-12-22T10:07:09;0.60;;;0.45;;
64520;SDS011;50896;46.714;17.322;2023-12-22T10:09:41;0.85;;;0.50;;
64520;SDS011;50896;46.714;17.322;2023-12-22T10:12:09;1.02;;;0.60;;
64520;SDS011;50896;46.714;17.322;2023-12-22T10:14:37;0.88;;;0.68;;
64520;SDS011;50896;46.714;17.322;2023-12-22T10:17:06;1.20;;;0.50;;
64520;SDS011;50896;46.714;17.322;2023-12-22T10:19:34;1.02;;;0.70;;
64520;SDS011;50896;46.714;17.322;2023-12-22T10:22:01;3.03;;;0.73;;
64520;SDS011;50896;46.714;17.322;2023-12-22T10:27:05;1.00;;;0.70;;
64520;SDS011;50896;46.714;17.322;2023-12-22T10:29:32;1.48;;;0.80;;
64520;SDS011;50896;46.714;17.322;2023-12-22T10:32:00;1.20;;;0.85;;
64520;SDS011;50896;46.714;17.322;2023-12-22T10:34:33;2.75;;;1.15;;
64520;SDS011;50896;46.714;17.322;2023-12-22T10:37:00;1.20;;;0.82;;
64520;SDS011;50896;46.714;17.322;2023-12-22T10:39:27;3.60;;;1.48;;
64520;SDS011;50896;46.714;17.322;2023-12-22T10:41:58;2.67;;;1.08;;
64520;SDS011;50896;46.714;17.322;2023-12-22T10:44:26;1.65;;;0.63;;
64520;SDS011;50896;46.714;17.322;2023-12-22T10:46:54;0.75;;;0.50;;
64520;SDS011;50896;46.714;17.322;2023-12-22T10:49:23;1.13;;;0.60;;
64520;SDS011;50896;46.714;17.322;2023-12-22T10:51:51;2.10;;;0.68;;
64520;SDS011;50896;46.714;17.322;2023-12-22T10:54:19;1.42;;;0.60;;
64520;SDS011;50896;46.714;17.322;2023-12-22T10:56:46;0.70;;;0.60;;
64520;SDS011;50896;46.714;17.322;2023-12-22T10:59:16;3.42;;;2.58;;
64520;SDS011;50896;46.714;17.322;2023-12-22T11:01:45;2.70;;;1.35;;
64520;SDS011;50896;46.714;17.322;2023-12-22T11:04:13;1.65;;;1.20;;
64520;SDS011;50896;46.714;17.322;2023-12-22T11:06:46;0.95;;;0.88;;
64520;SDS011;50896;46.714;17.322;2023-12-22T11:09:16;1.70;;;1.40;;
64520;SDS011;50896;46.714;17.322;2023-12-22T11:11:43;5.10;;;1.42;;
64520;SDS011;50896;46.714;17.322;2023-12-22T11:14:12;1.10;;;1.10;;
64520;SDS011;50896;46.714;17.322;2023-12-22T11:16:40;1.75;;;1.48;;
64520;SDS011;50896;46.714;17.322;2023-12-22T11:19:07;1.67;;;0.88;;
64520;SDS011;50896;46.714;17.322;2023-12-22T11:21:35;0.90;;;0.80;;
64520;SDS011;50896;46.714;17.322;2023-12-22T11:24:03;0.50;;;0.40;;
64520;SDS011;50896;46.714;17.322;2023-12-22T11:26:31;0.70;;;0.50;;
64520;SDS011;50896;46.714;17.322;2023-12-22T11:28:59;0.50;;;0.40;;
64520;SDS011;50896;46.714;17.322;2023-12-22T11:31:27;0.45;;;0.35;;
64520;SDS011;50896;46.714;17.322;2023-12-22T11:33:57;0.80;;;0.50;;
64520;SDS011;50896;46.714;17.322;2023-12-22T11:36:37;0.40;;;0.40;;
64520;SDS011;50896;46.714;17.322;2023-12-22T11:39:04;1.60;;;1.50;;
64520;SDS011;50896;46.714;17.322;2023-12-22T11:44:24;2.15;;;0.60;;
64520;SDS011;50896;46.714;17.322;2023-12-22T11:47:02;2.40;;;0.68;;
64520;SDS011;50896;46.714;17.322;2023-12-22T11:49:33;1.25;;;0.90;;
64520;SDS011;50896;46.714;17.322;2023-12-22T11:52:10;1.35;;;0.75;;
64520;SDS011;50896;46.714;17.322;2023-12-22T11:54:51;1.17;;;0.70;;
64520;SDS011;50896;46.714;17.322;2023-12-22T11:57:33;23.88;;;12.95;;
64520;SDS011;50896;46.714;17.322;2023-12-22T12:02:37;2.42;;;1.58;;
64520;SDS011;50896;46.714;17.322;2023-12-22T12:05:07;1.33;;;0.60;;
64520;SDS011;50896;46.714;17.322;2023-12-22T12:10:03;0.30;;;0.20;;
64520;SDS011;50896;46.714;17.322;2023-12-22T12:12:30;0.20;;;0.20;;
64520;SDS011;50896;46.714;17.322;2023-12-22T12:14:57;0.20;;;0.20;;
64520;SDS011;50896;46.714;17.322;2023-12-22T12:17:28;3.03;;;0.30;;
64520;SDS011;50896;46.714;17.322;2023-12-22T12:19:56;0.20;;;0.20;;
64520;SDS011;50896;46.714;17.322;2023-12-22T12:22:25;2.85;;;1.23;;
64520;SDS011;50896;46.714;17.322;2023-12-22T12:24:53;0.73;;;0.30;;
64520;SDS011;50896;46.714;17.322;2023-12-22T12:27:20;0.22;;;0.20;;
64520;SDS011;50896;46.714;17.322;2023-12-22T12:29:47;0.43;;;0.22;;
64520;SDS011;50896;46.714;17.322;2023-12-22T12:32:14;1.00;;;0.20;;
64520;SDS011;50896;46.714;17.322;2023-12-22T12:34:44;0.50;;;0.30;;
64520;SDS011;50896;46.714;17.322;2023-12-22T12:37:13;0.25;;;0.25;;
64520;SDS011;50896;46.714;17.322;2023-12-22T12:39:41;0.57;;;0.50;;
64520;SDS011;50896;46.714;17.322;2023-12-22T12:42:10;1.35;;;0.60;;
64520;SDS011;50896;46.714;17.322;2023-12-22T12:44:42;3.33;;;0.40;;
64520;SDS011;50896;46.714;17.322;2023-12-22T12:47:12;0.52;;;0.30;;
64520;SDS011;50896;46.714;17.322;2023-12-22T12:49:41;1.50;;;0.77;;
64520;SDS011;50896;46.714;17.322;2023-12-22T12:52:13;3.15;;;1.50;;
64520;SDS011;50896;46.714;17.322;2023-12-22T12:54:40;1.52;;;0.80;;
64520;SDS011;50896;46.714;17.322;2023-12-22T12:57:13;2.65;;;1.05;;
64520;SDS011;50896;46.714;17.322;2023-12-22T12:59:44;4.07;;;1.77;;
64520;SDS011;50896;46.714;17.322;2023-12-22T13:02:12;2.13;;;1.30;;
64520;SDS011;50896;46.714;17.322;2023-12-22T13:04:39;1.67;;;1.00;;
64520;SDS011;50896;46.714;17.322;2023-12-22T13:07:06;0.98;;;0.85;;
64520;SDS011;50896;46.714;17.322;2023-12-22T13:09:33;0.93;;;0.68;;
64520;SDS011;50896;46.714;17.322;2023-12-22T13:12:01;4.32;;;1.20;;
64520;SDS011;50896;46.714;17.322;2023-12-22T13:14:29;1.98;;;1.10;;
64520;SDS011;50896;46.714;17.322;2023-12-22T13:16:57;4.30;;;1.88;;
64520;SDS011;50896;46.714;17.322;2023-12-22T13:19:25;5.60;;;3.05;;
64520;SDS011;50896;46.714;17.322;2023-12-22T13:21:53;13.77;;;6.10;;
64520;SDS011;50896;46.714;17.322;2023-12-22T13:24:20;10.00;;;4.82;;
64520;SDS011;50896;46.714;17.322;2023-12-22T13:26:58;7.22;;;3.75;;
64520;SDS011;50896;46.714;17.322;2023-12-22T13:29:44;3.85;;;2.22;;
64520;SDS011;50896;46.714;17.322;2023-12-22T13:32:19;4.53;;;2.65;;
64520;SDS011;50896;46.714;17.322;2023-12-22T13:34:50;5.93;;;3.28;;
64520;SDS011;50896;46.714;17.322;2023-12-22T13:37:19;2.97;;;1.80;;
64520;SDS011;50896;46.714;17.322;2023-12-22T13:39:47;3.00;;;1.63;;
64520;SDS011;50896;46.714;17.322;2023-12-22T13:42:16;5.65;;;2.83;;
64520;SDS011;50896;46.714;17.322;2023-12-22T13:44:44;11.23;;;5.63;;
64520;SDS011;50896;46.714;17.322;2023-12-22T13:47:14;6.00;;;3.30;;
64520;SDS011;50896;46.714;17.322;2023-12-22T13:49:42;3.03;;;2.15;;
64520;SDS011;50896;46.714;17.322;2023-12-22T13:52:29;4.55;;;2.10;;
64520;SDS011;50896;46.714;17.322;2023-12-22T13:55:01;3.08;;;1.38;;
64520;SDS011;50896;46.714;17.322;2023-12-22T13:57:29;2.50;;;1.48;;
64520;SDS011;50896;46.714;17.322;2023-12-22T13:59:56;2.70;;;1.63;;
64520;SDS011;50896;46.714;17.322;2023-12-22T14:02:23;1.73;;;1.30;;
64520;SDS011;50896;46.714;17.322;2023-12-22T14:04:51;1.63;;;1.08;;
64520;SDS011;50896;46.714;17.322;2023-12-22T14:07:19;1.48;;;0.80;;
64520;SDS011;50896;46.714;17.322;2023-12-22T14:09:45;1.48;;;1.02;;
64520;SDS011;50896;46.714;17.322;2023-12-22T14:12:12;1.05;;;0.95;;
64520;SDS011;50896;46.714;17.322;2023-12-22T14:14:49;2.67;;;1.60;;
64520;SDS011;50896;46.714;17.322;2023-12-22T14:17:19;4.82;;;1.88;;
64520;SDS011;50896;46.714;17.322;2023-12-22T14:19:46;6.97;;;2.38;;
64520;SDS011;50896;46.714;17.322;2023-12-22T14:22:15;8.23;;;4.50;;
64520;SDS011;50896;46.714;17.322;2023-12-22T14:24:42;5.70;;;3.40;;
64520;SDS011;50896;46.714;17.322;2023-12-22T14:27:09;2.92;;;1.40;;
64520;SDS011;50896;46.714;17.322;2023-12-22T14:29:39;4.32;;;2.13;;
64520;SDS011;50896;46.714;17.322;2023-12-22T14:32:09;3.75;;;2.00;;
64520;SDS011;50896;46.714;17.322;2023-12-22T14:34:38;4.40;;;2.70;;
64520;SDS011;50896;46.714;17.322;2023-12-22T14:37:05;2.25;;;1.55;;
64520;SDS011;50896;46.714;17.322;2023-12-22T14:39:32;3.22;;;2.08;;
64520;SDS011;50896;46.714;17.322;2023-12-22T14:42:00;2.40;;;1.33;;
64520;SDS011;50896;46.714;17.322;2023-12-22T14:44:29;3.22;;;2.35;;
64520;SDS011;50896;46.714;17.322;2023-12-22T14:46:56;1.60;;;0.60;;
64520;SDS011;50896;46.714;17.322;2023-12-22T14:49:23;1.00;;;0.50;;
64520;SDS011;50896;46.714;17.322;2023-12-22T14:51:50;2.25;;;0.80;;
64520;SDS011;50896;46.714;17.322;2023-12-22T14:54:20;0.45;;;0.40;;
64520;SDS011;50896;46.714;17.322;2023-12-22T14:56:47;0.40;;;0.30;;
64520;SDS011;50896;46.714;17.322;2023-12-22T14:59:15;1.70;;;0.40;;
64520;SDS011;50896;46.714;17.322;2023-12-22T15:01:43;0.50;;;0.40;;
64520;SDS011;50896;46.714;17.322;2023-12-22T15:04:14;0.82;;;0.60;;